Time;durP1;ratioP1;P1;durP2;ratioP2;P2;SDS_P1;SDS_P2;PMS_P1;PMS_P2;Temp;Humidity;BMP_temperature;BMP_pressure;BME280_temperature;BME280_humidity;BME280_pressure;Samples;Min_cycle;Max_cycle;Signal;HPM_P1;HPM_P2
2022/12/07 00:01:40;;;;;;;47.30;22.02;;;;;;;6.43;88.30;99883.47;5071773;28;20419;-44
2022/12/07 00:04:07;;;;;;;42.65;21.40;;;;;;;6.45;87.76;99892.06;5071979;28;20024;-43
2022/12/07 00:06:34;;;;;;;45.45;21.35;;;;;;;6.22;89.16;99887.53;5071658;28;20112;-44
2022/12/07 00:09:00;;;;;;;42.65;21.30;;;;;;;6.37;88.10;99887.63;5071756;28;20460;-44
2022/12/07 00:11:25;;;;;;;46.17;21.75;;;;;;;6.22;88.58;99898.09;5071686;28;20042;-44
2022/12/07 00:13:53;;;;;;;45.95;21.13;;;;;;;6.11;88.24;99887.09;5071491;28;20016;-44
2022/12/07 00:16:20;;;;;;;41.42;20.15;;;;;;;6.16;87.50;99890.06;5071369;28;20094;-43
2022/12/07 00:18:46;;;;;;;42.72;19.75;;;;;;;5.89;87.97;99881.53;5071476;28;20103;-44
2022/12/07 00:21:17;;;;;;;44.30;20.17;;;;;;;5.84;89.02;99884.66;5071339;28;20116;-46
2022/12/07 00:23:44;;;;;;;41.30;19.15;;;;;;;5.78;89.41;99887.97;5071283;28;20048;-44
2022/12/07 00:26:21;;;;;;;37.45;18.73;;;;;;;5.92;88.00;99886.47;5071300;28;20025;-44
2022/12/07 00:28:48;;;;;;;35.88;18.10;;;;;;;5.82;88.36;99884.00;5070719;28;20082;-45
2022/12/07 00:31:15;;;;;;;33.42;16.55;;;;;;;5.83;88.41;99885.66;5070976;28;20021;-44
2022/12/07 00:33:41;;;;;;;35.00;16.65;;;;;;;5.82;87.82;99885.81;5070892;28;20444;-44
2022/12/07 00:36:09;;;;;;;33.05;15.68;;;;;;;5.75;87.53;99890.13;5071201;28;20024;-42
2022/12/07 00:38:36;;;;;;;29.95;15.15;;;;;;;5.67;87.71;99894.47;5071213;28;20035;-44
2022/12/07 00:41:05;;;;;;;28.70;14.30;;;;;;;5.63;88.05;99887.03;5071124;28;20139;-43
2022/12/07 00:43:30;;;;;;;28.52;13.55;;;;;;;5.55;87.72;99889.69;5071190;28;20020;-44
2022/12/07 00:45:56;;;;;;;32.45;14.85;;;;;;;5.60;88.18;99882.09;5071052;28;20091;-44
2022/12/07 00:48:22;;;;;;;26.88;13.68;;;;;;;5.53;88.22;99883.75;5070834;28;20028;-44
2022/12/07 00:50:49;;;;;;;28.90;14.18;;;;;;;5.47;88.28;99886.06;5071022;28;20024;-44
2022/12/07 00:53:15;;;;;;;29.08;14.43;;;;;;;5.55;88.05;99871.19;5071120;28;20016;-45
2022/12/07 00:55:41;;;;;;;26.60;13.57;;;;;;;5.53;87.96;99883.75;5070773;28;20361;-45
2022/12/07 00:58:07;;;;;;;28.80;14.23;;;;;;;5.59;88.12;99877.78;5070806;28;20021;-43
2022/12/07 01:00:33;;;;;;;27.15;14.07;;;;;;;5.69;87.73;99883.69;5070710;28;20475;-43
2022/12/07 01:02:59;;;;;;;29.38;13.95;;;;;;;5.52;87.65;99876.81;5070724;28;20032;-44
2022/12/07 01:05:24;;;;;;;27.70;14.00;;;;;;;5.49;88.07;99877.97;5070606;28;20082;-44
2022/12/07 01:07:49;;;;;;;28.50;13.88;;;;;;;5.46;87.38;99873.88;5070118;28;20498;-45
2022/12/07 01:10:15;;;;;;;25.85;12.68;;;;;;;5.39;87.87;99879.97;5070610;28;20056;-47
2022/12/07 01:12:40;;;;;;;28.17;13.00;;;;;;;5.45;88.60;99871.38;5070635;28;20025;-44
2022/12/07 01:15:07;;;;;;;26.17;12.55;;;;;;;5.81;86.63;99881.56;5070618;28;20040;-44
2022/12/07 01:17:33;;;;;;;29.63;13.48;;;;;;;5.40;86.80;99868.41;5070652;28;20021;-45
2022/12/07 01:19:59;;;;;;;26.60;12.50;;;;;;;5.24;87.13;99861.34;5070584;28;20024;-43
2022/12/07 01:22:24;;;;;;;26.23;12.88;;;;;;;5.13;87.88;99870.41;5070457;28;20491;-45
2022/12/07 01:24:49;;;;;;;26.90;13.15;;;;;;;5.16;87.62;99866.59;5070152;28;20468;-43
2022/12/07 01:27:15;;;;;;;25.33;12.63;;;;;;;5.20;87.68;99867.94;5069605;28;20024;-43
2022/12/07 01:29:40;;;;;;;24.25;13.13;;;;;;;5.15;87.34;99862.34;5070494;28;20024;-43
2022/12/07 01:32:06;;;;;;;26.85;12.40;;;;;;;5.04;88.13;99856.38;5070217;28;20016;-43
2022/12/07 01:34:31;;;;;;;31.00;13.18;;;;;;;5.22;87.34;99858.03;5070370;28;20100;-45
2022/12/07 01:36:57;;;;;;;25.60;12.00;;;;;;;5.15;88.38;99859.69;5070572;28;20063;-44
2022/12/07 01:39:23;;;;;;;27.02;12.93;;;;;;;5.09;88.11;99846.16;5070143;28;20017;-43
2022/12/07 01:41:49;;;;;;;28.45;12.48;;;;;;;5.07;88.64;99849.97;5070700;28;20131;-43
2022/12/07 01:44:21;;;;;;;26.40;12.15;;;;;;;5.02;89.15;99839.06;5070301;28;20363;-44
2022/12/07 01:46:49;;;;;;;28.27;12.80;;;;;;;5.13;88.18;99843.22;5069924;28;20362;-44
2022/12/07 01:49:27;;;;;;;25.92;12.57;;;;;;;5.09;88.13;99835.63;5070252;28;20028;-44
2022/12/07 01:52:01;;;;;;;26.17;12.52;;;;;;;5.08;87.78;99833.97;5070085;28;20031;-43
2022/12/07 01:54:27;;;;;;;27.10;13.15;;;;;;;5.03;88.83;99831.00;5070179;28;20036;-44
2022/12/07 01:56:56;;;;;;;31.27;13.50;;;;;;;5.01;88.51;99829.53;5070157;28;20020;-45
2022/12/07 01:59:25;;;;;;;29.27;12.65;;;;;;;4.87;88.95;99846.81;5070101;28;20545;-44
2022/12/07 02:01:52;;;;;;;27.88;11.98;;;;;;;4.87;89.59;99849.44;5070060;28;20040;-44
2022/12/07 02:04:18;;;;;;;25.20;12.52;;;;;;;4.84;89.65;99841.88;5070059;28;20487;-43
2022/12/07 02:06:44;;;;;;;28.42;12.90;;;;;;;4.88;89.09;99841.38;5070063;28;20024;-44
2022/12/07 02:09:10;;;;;;;30.42;12.93;;;;;;;4.77;89.85;99840.88;5069930;28;20025;-43
2022/12/07 02:11:36;;;;;;;27.25;13.23;;;;;;;4.81;90.10;99843.03;5070053;28;20024;-43
2022/12/07 02:14:01;;;;;;;24.92;12.60;;;;;;;4.96;89.60;99834.47;5069815;28;20027;-45
2022/12/07 02:16:50;;;;;;;36.00;13.55;;;;;;;5.00;88.82;99833.97;5068748;28;20123;-44
2022/12/07 02:19:33;;;;;;;34.38;12.98;;;;;;;4.94;88.90;99833.81;5049135;28;20625;-44
2022/12/07 02:22:29;;;;;;;27.02;12.57;;;;;;;4.79;89.60;99831.81;5067270;28;20463;-45
2022/12/07 02:25:32;;;;;;;25.73;12.40;;;;;;;4.82;89.97;99814.84;5067972;28;20496;-44
2022/12/07 02:28:06;;;;;;;29.02;13.57;;;;;;;5.05;88.87;99818.47;5069818;28;20452;-45
2022/12/07 02:30:40;;;;;;;27.52;13.07;;;;;;;5.10;87.99;99820.59;5069973;28;20107;-44
2022/12/07 02:33:28;;;;;;;24.17;11.88;;;;;;;5.07;87.73;99805.94;5069676;28;20020;-45
2022/12/07 02:35:57;;;;;;;31.40;13.15;;;;;;;4.97;88.14;99810.56;5069567;28;20039;-45
2022/12/07 02:38:52;;;;;;;31.17;13.25;;;;;;;4.85;88.27;99810.06;5072132;28;20023;-45
2022/12/07 02:41:37;;;;;;;26.40;12.50;;;;;;;4.94;87.82;99807.44;5065819;28;20156;-45
2022/12/07 02:44:17;;;;;;;27.85;12.90;;;;;;;4.88;88.07;99808.91;5073376;28;20024;-46
2022/12/07 02:46:50;;;;;;;23.85;12.48;;;;;;;4.78;88.68;99814.38;5073570;28;20473;-45
2022/12/07 02:49:16;;;;;;;27.27;12.32;;;;;;;4.92;88.01;99810.22;5073381;28;20024;-45
2022/12/07 02:51:45;;;;;;;29.27;12.30;;;;;;;4.96;87.47;99808.09;5073309;28;20020;-45
2022/12/07 02:54:18;;;;;;;24.48;11.52;;;;;;;5.04;86.62;99808.09;5073216;28;20391;-45
2022/12/07 02:56:44;;;;;;;23.83;11.27;;;;;;;5.01;87.17;99805.78;5073161;28;20024;-46
2022/12/07 02:59:28;;;;;;;24.20;10.73;;;;;;;4.84;87.54;99794.41;5073137;28;20439;-45
2022/12/07 03:02:17;;;;;;;20.67;10.77;;;;;;;4.91;87.39;99790.13;5073254;28;20333;-45
2022/12/07 03:05:24;;;;;;;22.80;11.57;;;;;;;5.16;86.89;99784.81;5072883;28;20099;-45
2022/12/07 03:07:50;;;;;;;21.90;10.57;;;;;;;4.91;87.46;99784.84;5072887;28;20408;-45
2022/12/07 03:10:36;;;;;;;25.08;10.95;;;;;;;4.88;87.49;99783.38;5072923;28;20024;-45
2022/12/07 03:13:24;;;;;;;20.00;10.63;;;;;;;5.06;86.96;99790.28;5072939;28;20031;-44
2022/12/07 03:16:01;;;;;;;23.80;11.18;;;;;;;4.84;87.20;99795.25;5072854;28;20041;-46
2022/12/07 03:18:33;;;;;;;23.17;11.07;;;;;;;4.87;88.31;99794.06;5072819;28;20035;-45
2022/12/07 03:21:04;;;;;;;22.55;10.55;;;;;;;5.02;88.34;99794.25;5072849;28;20077;-44
2022/12/07 03:23:33;;;;;;;28.27;11.02;;;;;;;5.16;87.36;99803.28;5072638;28;20024;-44
2022/12/07 03:26:01;;;;;;;26.63;10.45;;;;;;;5.09;87.71;99803.16;5072802;28;20025;-45
2022/12/07 03:28:36;;;;;;;20.73;9.90;;;;;;;5.20;88.08;99808.06;5072578;28;20016;-45
2022/12/07 03:31:24;;;;;;;22.25;10.25;;;;;;;5.19;87.21;99800.31;5072733;28;20040;-46
2022/12/07 03:33:59;;;;;;;21.63;10.43;;;;;;;5.19;87.22;99795.88;5072538;28;20033;-45
2022/12/07 03:36:31;;;;;;;21.45;10.52;;;;;;;5.22;87.64;99807.91;5072735;28;20570;-44
2022/12/07 03:39:18;;;;;;;22.50;10.90;;;;;;;5.01;87.75;99806.59;5072884;28;20449;-45
2022/12/07 03:41:44;;;;;;;21.58;10.57;;;;;;;5.08;88.26;99806.75;5062048;28;20036;-48
2022/12/07 03:44:10;;;;;;;22.92;11.38;;;;;;;5.09;88.56;99805.78;5072710;28;20024;-47
2022/12/07 03:47:01;;;;;;;24.13;11.82;;;;;;;5.03;88.93;99809.09;5072770;28;20021;-46
2022/12/07 03:49:51;;;;;;;25.02;11.15;;;;;;;4.88;88.95;99804.47;5071251;28;20021;-45
2022/12/07 03:52:30;;;;;;;24.55;11.15;;;;;;;5.15;89.42;99799.81;5072296;28;20468;-44
2022/12/07 03:55:17;;;;;;;26.67;11.45;;;;;;;5.19;87.12;99795.03;5072006;28;20032;-45
2022/12/07 03:57:44;;;;;;;28.50;11.68;;;;;;;5.27;87.48;99787.97;5072032;28;20025;-43
2022/12/07 04:00:11;;;;;;;30.25;12.00;;;;;;;5.11;87.75;99782.69;5071990;28;20107;-44
2022/12/07 04:02:37;;;;;;;26.83;13.35;;;;;;;5.21;87.05;99790.41;5071610;28;20067;-44
2022/12/07 04:05:03;;;;;;;29.60;13.15;;;;;;;5.14;87.58;99786.78;5071796;28;20066;-46
2022/12/07 04:07:29;;;;;;;25.10;11.57;;;;;;;5.14;86.92;99781.53;5071696;28;20063;-44
2022/12/07 04:09:57;;;;;;;31.45;13.55;;;;;;;5.20;88.11;99788.78;5071754;28;20051;-44
2022/12/07 04:12:23;;;;;;;83.97;41.42;;;;;;;5.20;87.48;99786.97;5071519;28;20024;-44
2022/12/07 04:14:48;;;;;;;96.38;44.83;;;;;;;5.08;88.22;99789.13;5071667;28;20038;-43
2022/12/07 04:17:14;;;;;;;61.20;27.65;;;;;;;5.04;88.07;99790.44;5071175;28;20189;-45
2022/12/07 04:19:39;;;;;;;110.18;49.25;;;;;;;5.06;87.26;99799.03;5071680;28;20035;-45
2022/12/07 04:22:05;;;;;;;32.83;15.80;;;;;;;4.96;87.71;99779.91;5071588;28;20240;-44
2022/12/07 04:24:32;;;;;;;21.70;10.25;;;;;;;4.87;87.62;99773.81;5071859;28;20029;-44
2022/12/07 04:26:57;;;;;;;27.10;10.70;;;;;;;5.22;86.94;99776.25;5071527;28;20055;-45
2022/12/07 04:29:23;;;;;;;20.33;10.10;;;;;;;5.35;85.39;99775.72;5071799;28;20112;-44
2022/12/07 04:31:49;;;;;;;21.80;10.00;;;;;;;5.28;85.83;99772.94;5071425;28;20020;-44
2022/12/07 04:34:16;;;;;;;27.50;11.48;;;;;;;5.37;86.16;99771.94;5070051;28;20116;-44
2022/12/07 04:36:42;;;;;;;20.95;9.75;;;;;;;5.08;86.63;99780.38;5071332;28;20028;-45
2022/12/07 04:39:24;;;;;;;23.70;9.73;;;;;;;5.05;85.42;99784.19;5071226;28;20447;-44
2022/12/07 04:41:50;;;;;;;27.83;10.35;;;;;;;5.21;85.94;99782.50;5070967;28;20524;-45
2022/12/07 04:44:16;;;;;;;26.20;10.55;;;;;;;5.01;86.10;99768.88;5070453;28;20127;-44
2022/12/07 04:46:43;;;;;;;20.77;9.70;;;;;;;5.04;86.35;99776.44;5070666;28;20381;-44
2022/12/07 04:49:08;;;;;;;32.83;16.42;;;;;;;4.84;86.83;99776.78;5070863;28;20028;-44
2022/12/07 04:51:34;;;;;;;80.47;39.15;;;;;;;4.99;87.31;99774.31;5070997;28;20025;-44
2022/12/07 04:53:59;;;;;;;29.25;12.68;;;;;;;4.90;87.45;99773.47;5070935;28;20016;-45
2022/12/07 04:56:25;;;;;;;23.52;10.68;;;;;;;4.87;87.37;99775.63;5070143;28;20024;-45
2022/12/07 04:58:52;;;;;;;25.38;10.82;;;;;;;4.77;87.42;99769.69;5070211;28;20016;-45
2022/12/07 05:01:18;;;;;;;29.02;11.30;;;;;;;4.80;87.36;99782.56;5069214;28;20523;-45
2022/12/07 05:03:44;;;;;;;23.92;10.75;;;;;;;4.72;87.18;99780.72;5069504;28;20021;-45
2022/12/07 05:06:11;;;;;;;22.13;10.70;;;;;;;4.58;88.34;99778.75;5060996;28;20032;-44
2022/12/07 05:08:37;;;;;;;17.92;10.05;;;;;;;4.51;88.13;99789.09;5064681;28;20039;-44
2022/12/07 05:11:04;;;;;;;27.42;12.32;;;;;;;4.60;89.36;99780.22;5052276;28;20029;-44
2022/12/07 05:13:29;;;;;;;117.22;52.55;;;;;;;4.54;89.27;99786.16;5050062;28;20017;-45
2022/12/07 05:15:55;;;;;;;99.65;41.42;;;;;;;4.75;89.00;99790.13;5061012;28;20048;-45
2022/12/07 05:18:20;;;;;;;28.02;13.30;;;;;;;4.80;88.59;99785.19;5069105;28;20020;-45
2022/12/07 05:20:46;;;;;;;28.73;13.23;;;;;;;4.59;87.94;99775.09;5069920;28;20024;-44
2022/12/07 05:23:12;;;;;;;28.70;12.35;;;;;;;4.50;88.54;99787.47;5069807;28;20651;-45
2022/12/07 05:25:37;;;;;;;30.30;12.88;;;;;;;4.53;89.25;99786.31;5069729;28;20179;-44
2022/12/07 05:28:04;;;;;;;29.92;13.45;;;;;;;4.59;89.88;99780.38;5058930;28;20039;-51
2022/12/07 05:30:29;;;;;;;35.13;14.48;;;;;;;4.50;88.31;99796.19;5052639;28;20061;-44
2022/12/07 05:32:55;;;;;;;31.75;15.02;;;;;;;5.09;88.54;99788.13;5058366;28;20079;-45
2022/12/07 05:35:20;;;;;;;34.45;16.60;;;;;;;5.49;87.86;99804.88;5049177;28;20044;-44
2022/12/07 05:37:46;;;;;;;39.10;15.75;;;;;;;4.94;88.17;99800.34;5049984;28;20029;-45
2022/12/07 05:40:13;;;;;;;37.15;15.13;;;;;;;4.82;89.20;99801.69;5050452;28;20057;-47
2022/12/07 05:42:39;;;;;;;37.30;15.15;;;;;;;4.87;88.63;99792.28;5050433;28;20025;-46
2022/12/07 05:45:05;;;;;;;30.17;15.88;;;;;;;4.79;89.65;99788.81;5049402;28;20104;-48
2022/12/07 05:47:31;;;;;;;33.92;16.13;;;;;;;4.78;92.25;99795.91;5048792;28;20021;-43
2022/12/07 05:49:56;;;;;;;36.22;15.82;;;;;;;5.19;93.62;99795.03;5049084;28;20028;-44
2022/12/07 05:52:22;;;;;;;38.17;18.58;;;;;;;5.54;91.51;99796.47;5049132;28;20079;-44
2022/12/07 05:54:48;;;;;;;33.50;17.90;;;;;;;5.34;89.22;99789.91;5048521;28;20036;-45
2022/12/07 05:57:13;;;;;;;40.83;20.25;;;;;;;5.54;88.06;99790.34;5048475;28;20021;-44
2022/12/07 05:59:39;;;;;;;38.70;18.40;;;;;;;5.49;87.85;99791.69;5048879;28;20078;-44
2022/12/07 06:02:10;;;;;;;43.58;18.08;;;;;;;5.49;88.01;99796.97;5047886;28;20021;-44
2022/12/07 06:04:40;;;;;;;40.15;19.90;;;;;;;5.49;88.61;99807.50;5048050;28;20098;-43
2022/12/07 06:07:07;;;;;;;40.15;19.33;;;;;;;5.44;88.90;99795.81;5047978;28;20025;-45
2022/12/07 06:09:33;;;;;;;38.55;18.80;;;;;;;5.42;88.95;99789.88;5048768;28;20029;-44
2022/12/07 06:14:44;;;;;;;45.13;18.05;;;;;;;5.41;89.71;99801.44;5053079;28;20036;-44
2022/12/07 06:17:10;;;;;;;40.47;17.88;;;;;;;5.48;89.93;99807.69;5052730;28;20045;-46
2022/12/07 06:19:36;;;;;;;51.40;23.88;;;;;;;5.56;89.28;99801.56;5052573;28;20082;-45
2022/12/07 06:22:04;;;;;;;54.10;24.77;;;;;;;5.48;89.36;99805.88;5053031;28;20024;-45
2022/12/07 06:24:30;;;;;;;57.38;29.55;;;;;;;5.71;91.02;99806.97;5052900;28;20017;-44
2022/12/07 06:26:55;;;;;;;69.60;36.50;;;;;;;5.80;89.04;99801.47;5052828;28;20409;-46
2022/12/07 06:29:21;;;;;;;46.97;22.30;;;;;;;5.73;87.44;99791.78;5052761;28;20021;-44
2022/12/07 06:31:47;;;;;;;61.80;34.00;;;;;;;5.88;88.49;99814.66;5052680;28;20021;-44
2022/12/07 06:34:16;;;;;;;86.25;44.22;;;;;;;5.90;88.11;99813.66;5052732;28;20041;-46
2022/12/07 06:36:42;;;;;;;47.20;22.05;;;;;;;5.94;88.17;99807.88;5052535;28;20452;-43
2022/12/07 06:39:08;;;;;;;42.60;18.75;;;;;;;6.35;86.31;99814.81;5052249;28;20021;-43
2022/12/07 06:41:36;;;;;;;43.15;18.83;;;;;;;6.14;86.24;99820.69;5052411;28;20024;-45
2022/12/07 06:44:02;;;;;;;38.80;18.23;;;;;;;6.22;86.30;99824.09;5052363;28;20462;-44
2022/12/07 06:46:27;;;;;;;37.38;18.08;;;;;;;6.15;86.92;99820.53;5052272;28;20020;-44
2022/12/07 06:48:52;;;;;;;36.65;18.15;;;;;;;6.15;86.61;99828.47;5052260;28;20021;-45
2022/12/07 06:51:18;;;;;;;37.40;19.02;;;;;;;6.33;86.94;99816.81;5052481;28;20025;-44
2022/12/07 06:53:44;;;;;;;38.10;18.92;;;;;;;6.59;85.46;99821.78;5052467;28;20488;-44
2022/12/07 06:56:09;;;;;;;38.15;17.27;;;;;;;6.70;85.21;99818.72;5052555;28;20029;-44
2022/12/07 06:58:34;;;;;;;35.40;15.73;;;;;;;6.74;83.21;99813.88;5052532;28;20112;-43
2022/12/07 07:01:00;;;;;;;35.55;17.00;;;;;;;7.16;81.18;99817.81;5052417;28;20025;-45
2022/12/07 07:03:25;;;;;;;40.33;17.10;;;;;;;6.99;82.22;99817.19;5052493;28;20031;-45
2022/12/07 07:05:51;;;;;;;34.75;17.25;;;;;;;7.18;80.28;99810.56;5052381;28;20031;-44
2022/12/07 07:08:16;;;;;;;35.53;17.40;;;;;;;7.01;80.95;99810.69;5052118;28;20528;-44
2022/12/07 07:10:42;;;;;;;34.45;16.60;;;;;;;6.87;80.89;99808.00;5052119;28;20021;-43
2022/12/07 07:13:08;;;;;;;34.42;17.05;;;;;;;7.03;81.43;99800.75;5051716;28;20094;-44
2022/12/07 07:15:34;;;;;;;33.78;17.27;;;;;;;7.09;81.91;99804.50;5051791;28;20047;-44
2022/12/07 07:18:00;;;;;;;36.92;17.25;;;;;;;7.53;80.28;99809.03;5051701;28;20031;-44
2022/12/07 07:20:26;;;;;;;34.92;16.75;;;;;;;7.57;80.02;99807.66;5051927;28;20036;-44
2022/12/07 07:22:54;;;;;;;36.00;17.27;;;;;;;7.47;81.36;99814.25;5052242;28;20028;-45
2022/12/07 07:25:19;;;;;;;37.42;17.23;;;;;;;7.77;79.99;99810.59;5050835;28;20037;-45
2022/12/07 07:27:45;;;;;;;35.40;18.27;;;;;;;7.76;78.84;99816.88;5051940;28;20033;-43
2022/12/07 07:30:11;;;;;;;37.45;17.85;;;;;;;7.74;79.36;99813.59;5051960;28;20025;-45
2022/12/07 07:32:36;;;;;;;38.15;20.27;;;;;;;7.86;78.66;99810.50;5051376;28;20503;-44
2022/12/07 07:35:02;;;;;;;33.63;17.17;;;;;;;8.12;76.18;99807.34;5051670;28;20112;-47
2022/12/07 07:37:27;;;;;;;35.45;17.35;;;;;;;8.13;76.85;99819.59;5051939;28;20029;-44
2022/12/07 07:39:53;;;;;;;37.53;17.98;;;;;;;7.91;77.93;99818.72;5051457;28;20025;-44
2022/12/07 07:42:18;;;;;;;35.63;17.70;;;;;;;7.97;76.56;99810.03;5051403;28;20013;-45
2022/12/07 07:44:43;;;;;;;30.25;16.25;;;;;;;7.87;78.44;99825.41;5051348;28;20493;-45
2022/12/07 07:47:09;;;;;;;40.20;16.15;;;;;;;7.77;79.40;99830.97;5050797;28;20047;-45
2022/12/07 07:49:34;;;;;;;33.97;15.65;;;;;;;7.66;79.46;99823.47;5050960;28;20052;-44
2022/12/07 07:52:00;;;;;;;37.75;15.77;;;;;;;7.80;79.34;99826.09;5051191;28;20033;-45
2022/12/07 07:54:25;;;;;;;40.58;17.05;;;;;;;8.01;78.86;99829.84;5051348;28;20012;-46
2022/12/07 07:56:52;;;;;;;41.13;15.90;;;;;;;8.06;77.81;99802.81;5051042;28;20075;-46
2022/12/07 07:59:17;;;;;;;37.83;17.08;;;;;;;8.36;77.07;99824.78;5050698;28;20449;-45
2022/12/07 08:01:43;;;;;;;36.85;16.73;;;;;;;8.75;75.06;99829.69;5050941;28;20094;-44
2022/12/07 08:04:08;;;;;;;31.08;15.73;;;;;;;9.10;73.92;99827.16;5050953;28;20163;-44
2022/12/07 08:06:34;;;;;;;33.25;16.20;;;;;;;9.22;73.04;99822.13;5050964;28;20036;-44
2022/12/07 08:08:59;;;;;;;34.38;16.20;;;;;;;9.12;73.71;99821.63;5050902;28;20228;-44
2022/12/07 08:11:25;;;;;;;33.35;15.43;;;;;;;9.04;74.18;99819.94;5050903;28;20025;-43
2022/12/07 08:13:50;;;;;;;34.33;15.25;;;;;;;9.27;73.21;99822.41;5050934;28;20017;-44
2022/12/07 08:16:16;;;;;;;31.10;16.00;;;;;;;9.38;72.30;99821.03;5050591;28;20110;-44
2022/12/07 08:18:42;;;;;;;32.28;16.15;;;;;;;9.57;71.75;99822.97;5050629;28;20349;-44
2022/12/07 08:21:12;;;;;;;31.83;15.40;;;;;;;9.58;73.27;99819.31;5050672;28;20017;-44
2022/12/07 08:23:38;;;;;;;33.88;16.20;;;;;;;9.81;70.70;99815.56;5050796;28;20039;-45
2022/12/07 08:26:09;;;;;;;36.95;15.98;;;;;;;10.13;70.67;99826.56;5050723;28;20017;-44
2022/12/07 08:28:35;;;;;;;37.45;17.17;;;;;;;10.29;69.62;99820.88;5050431;28;20055;-44
2022/12/07 08:31:01;;;;;;;30.05;16.60;;;;;;;10.27;68.85;99822.09;5050568;28;20441;-45
2022/12/07 08:33:27;;;;;;;34.13;16.88;;;;;;;10.36;69.34;99826.28;5050778;28;20029;-45
2022/12/07 08:35:52;;;;;;;34.83;18.55;;;;;;;10.50;68.10;99822.59;5050291;28;20032;-45
2022/12/07 08:38:18;;;;;;;43.05;21.98;;;;;;;10.32;69.01;99825.84;5050436;28;20082;-44
2022/12/07 08:40:43;;;;;;;33.80;18.27;;;;;;;10.63;69.58;99823.69;5050507;28;20104;-44
2022/12/07 08:43:08;;;;;;;40.83;18.30;;;;;;;10.97;68.06;99809.38;5050295;28;20024;-43
2022/12/07 08:45:35;;;;;;;38.67;18.73;;;;;;;11.12;67.59;99814.50;5050472;28;20033;-44
2022/12/07 08:48:11;;;;;;;32.85;18.88;;;;;;;10.81;68.05;99815.09;5050204;28;20504;-44
2022/12/07 08:50:37;;;;;;;33.80;18.27;;;;;;;11.08;67.49;99805.25;5049926;28;20106;-45
2022/12/07 08:53:04;;;;;;;36.22;17.60;;;;;;;11.44;66.87;99798.69;5050014;28;20060;-44
2022/12/07 08:55:31;;;;;;;33.20;18.38;;;;;;;11.80;65.50;99803.50;5049877;28;20031;-44
2022/12/07 08:58:01;;;;;;;33.90;17.80;;;;;;;11.65;65.31;99798.44;5049822;28;20032;-44
2022/12/07 09:00:27;;;;;;;31.77;18.00;;;;;;;11.80;65.32;99805.38;5049735;28;20074;-44
2022/12/07 09:02:54;;;;;;;32.60;17.75;;;;;;;12.00;64.78;99798.16;5050187;28;20025;-42
2022/12/07 09:05:19;;;;;;;36.88;17.60;;;;;;;12.02;64.64;99798.75;5050160;28;20131;-44
2022/12/07 09:07:50;;;;;;;37.25;19.27;;;;;;;11.85;64.13;99787.72;5049816;28;20025;-43
2022/12/07 09:10:15;;;;;;;37.00;19.00;;;;;;;11.86;64.28;99783.19;5049837;28;20089;-44
2022/12/07 09:12:41;;;;;;;33.60;18.58;;;;;;;11.83;63.91;99781.78;5049717;28;20017;-45
2022/12/07 09:15:07;;;;;;;31.63;18.13;;;;;;;12.01;62.74;99775.78;5049375;28;20083;-44
2022/12/07 09:17:34;;;;;;;32.22;18.88;;;;;;;11.69;64.11;99761.50;5049755;28;20044;-44
2022/12/07 09:20:00;;;;;;;36.95;19.42;;;;;;;11.91;64.09;99759.41;5049680;28;20102;-43
2022/12/07 09:22:30;;;;;;;35.53;18.58;;;;;;;12.10;64.07;99755.03;5049752;28;20544;-44
2022/12/07 09:24:56;;;;;;;32.85;19.33;;;;;;;12.65;61.33;99755.28;5049658;28;20063;-44
2022/12/07 09:27:22;;;;;;;39.10;18.75;;;;;;;12.80;60.12;99751.50;5049579;28;20043;-42
2022/12/07 09:29:47;;;;;;;34.28;17.17;;;;;;;12.68;60.66;99749.53;5049440;28;20021;-43
2022/12/07 09:32:12;;;;;;;39.13;20.52;;;;;;;12.73;60.45;99751.53;5049410;28;20340;-44
2022/12/07 09:34:38;;;;;;;35.22;19.33;;;;;;;12.86;60.75;99746.09;5049396;28;20036;-43
2022/12/07 09:37:04;;;;;;;36.47;20.27;;;;;;;13.38;58.53;99731.66;5049335;28;20021;-44
2022/12/07 09:39:29;;;;;;;38.50;20.33;;;;;;;12.85;60.65;99727.63;5049345;28;20025;-42
2022/12/07 09:41:58;;;;;;;42.33;20.48;;;;;;;13.09;60.17;99728.63;5049462;28;20039;-44
2022/12/07 09:44:26;;;;;;;36.05;21.67;;;;;;;13.24;60.13;99728.28;5049526;28;20029;-44
2022/12/07 09:46:52;;;;;;;36.65;21.77;;;;;;;12.54;60.16;99726.63;5049289;28;20037;-43
2022/12/07 09:49:22;;;;;;;45.28;22.13;;;;;;;12.51;61.20;99725.22;5053002;28;20104;-45
2022/12/07 09:51:58;;;;;;;48.55;22.88;;;;;;;12.05;61.83;99713.00;5053039;28;20040;-42
2022/12/07 09:54:24;;;;;;;44.10;22.15;;;;;;;12.49;61.00;99713.94;5053145;28;20607;-43
2022/12/07 09:56:49;;;;;;;43.83;22.08;;;;;;;12.41;61.11;99714.19;5053320;28;20378;-43
2022/12/07 09:59:18;;;;;;;41.10;22.20;;;;;;;12.71;60.51;99700.22;5053094;28;20108;-44
2022/12/07 10:01:46;;;;;;;41.00;22.58;;;;;;;12.53;60.81;99714.34;5053146;28;20024;-43
2022/12/07 10:04:16;;;;;;;46.22;23.42;;;;;;;12.74;60.37;99704.28;5053219;28;20104;-45
2022/12/07 10:06:42;;;;;;;44.72;22.27;;;;;;;12.66;60.89;99700.03;5052855;28;20024;-43
2022/12/07 10:09:21;;;;;;;42.22;22.45;;;;;;;13.34;58.95;99709.91;5052583;28;20599;-44
2022/12/07 10:12:03;;;;;;;30.50;16.83;;;;;;;12.67;59.51;99699.81;5052787;28;20112;-43
2022/12/07 10:14:30;;;;;;;29.60;17.63;;;;;;;12.65;60.92;99693.88;5053123;28;20025;-43
2022/12/07 10:16:56;;;;;;;34.50;17.92;;;;;;;12.43;60.64;99682.78;5052375;28;20049;-44
2022/12/07 10:19:25;;;;;;;29.30;16.73;;;;;;;12.68;60.39;99693.47;5052681;28;20103;-44
2022/12/07 10:22:11;;;;;;;37.30;18.83;;;;;;;13.02;59.63;99687.81;5052625;28;20021;-45
2022/12/07 10:24:40;;;;;;;32.83;18.10;;;;;;;13.18;59.04;99683.75;5052570;28;20044;-43
2022/12/07 10:27:29;;;;;;;36.40;18.08;;;;;;;13.14;59.52;99680.72;5052544;28;20021;-45
2022/12/07 10:29:54;;;;;;;30.13;16.45;;;;;;;12.71;60.76;99670.84;5052302;28;20033;-45
2022/12/07 10:32:20;;;;;;;31.02;16.55;;;;;;;13.06;60.79;99670.28;5052335;28;20039;-44
2022/12/07 10:34:45;;;;;;;25.92;13.68;;;;;;;12.72;59.69;99667.16;5052463;28;20052;-42
2022/12/07 10:37:14;;;;;;;24.77;13.48;;;;;;;13.08;58.62;99663.72;5052370;28;20377;-44
2022/12/07 10:39:52;;;;;;;25.63;14.50;;;;;;;13.00;60.39;99663.19;5052321;28;20023;-43
2022/12/07 10:42:30;;;;;;;27.05;14.32;;;;;;;12.86;59.62;99665.97;5052294;28;20024;-44
2022/12/07 10:45:10;;;;;;;26.35;14.40;;;;;;;13.56;57.74;99675.53;5052342;28;20510;-44
2022/12/07 10:47:39;;;;;;;25.67;13.43;;;;;;;13.25;59.29;99674.63;5052287;28;20094;-44
2022/12/07 10:50:19;;;;;;;29.75;14.38;;;;;;;13.18;59.55;99673.06;5052123;28;20033;-46
2022/12/07 10:53:03;;;;;;;27.73;13.55;;;;;;;13.58;58.54;99675.31;5052367;28;20021;-43
2022/12/07 10:56:09;;;;;;;22.50;13.85;;;;;;;13.16;59.10;99675.16;5051886;28;20025;-43
2022/12/07 10:58:37;;;;;;;29.13;13.95;;;;;;;13.36;58.61;99677.63;5052379;28;20017;-48
2022/12/07 11:01:29;;;;;;;24.90;13.23;;;;;;;13.17;58.70;99666.88;5052103;28;20167;-43
2022/12/07 11:04:03;;;;;;;24.65;13.98;;;;;;;13.08;59.70;99663.72;5052898;28;20074;-43
2022/12/07 11:06:31;;;;;;;27.42;13.40;;;;;;;13.30;59.09;99657.94;5051896;28;20035;-46
2022/12/07 11:09:00;;;;;;;26.83;13.93;;;;;;;13.49;58.87;99648.06;5051678;28;20050;-44
2022/12/07 11:11:42;;;;;;;25.30;14.40;;;;;;;13.73;57.78;99648.16;5051662;28;20037;-44
2022/12/07 11:14:49;;;;;;;24.95;13.73;;;;;;;12.89;60.38;99649.53;5051803;28;20032;-45
2022/12/07 11:17:26;;;;;;;24.30;14.05;;;;;;;13.02;60.05;99653.09;5009160;28;20050;-46
2022/12/07 11:20:09;;;;;;;24.48;13.48;;;;;;;13.08;59.67;99642.34;5048023;28;20060;-43
2022/12/07 11:23:05;;;;;;;27.67;14.23;;;;;;;12.80;60.17;99634.81;5052095;28;20033;-44
2022/12/07 11:26:06;;;;;;;27.70;14.07;;;;;;;13.18;60.08;99631.13;5052271;28;20090;-43
2022/12/07 11:29:08;;;;;;;27.70;14.82;;;;;;;13.58;58.90;99633.34;5051806;28;20076;-42
2022/12/07 11:31:44;;;;;;;25.88;14.30;;;;;;;13.13;60.20;99633.66;5051715;28;20484;-44
2022/12/07 11:34:31;;;;;;;24.25;13.77;;;;;;;13.15;59.56;99625.41;5051612;28;20029;-44
2022/12/07 11:36:57;;;;;;;22.85;13.13;;;;;;;13.15;59.71;99623.53;5051668;28;20033;-44
2022/12/07 11:39:26;;;;;;;24.30;12.52;;;;;;;13.39;59.75;99632.56;5051645;28;20016;-44